Time;durP1;ratioP1;P1;durP2;ratioP2;P2;SDS_P1;SDS_P2;PMS_P1;PMS_P2;Temp;Humidity;BMP_temperature;BMP_pressure;BME280_temperature;BME280_humidity;BME280_pressure;Samples;Min_cycle;Max_cycle;Signal;HPM_P1;HPM_P2
2023/10/01 00:02:20;;;;;;;14.48;7.00;;;;;;;15.35;55.75;99558.53;6117559;23;20510;-92
2023/10/01 00:04:46;;;;;;;9.52;6.53;;;;;;;15.43;56.00;99579.56;6141247;23;20001;-93
2023/10/01 00:07:11;;;;;;;10.15;6.68;;;;;;;15.41;56.28;99576.34;6117571;23;20012;-92
2023/10/01 00:09:37;;;;;;;15.82;7.30;;;;;;;15.34;56.51;99562.34;6141397;23;19973;-93
2023/10/01 00:12:03;;;;;;;12.27;6.30;;;;;;;15.35;55.85;99559.31;6117150;23;20008;-92
2023/10/01 00:14:29;;;;;;;11.43;6.78;;;;;;;15.14;56.85;99560.75;6116786;23;20008;-93
2023/10/01 00:16:54;;;;;;;11.10;6.93;;;;;;;15.02;57.63;99561.19;6116167;23;20001;-92
2023/10/01 00:19:20;;;;;;;9.93;6.82;;;;;;;14.95;57.28;99553.41;6116358;23;19997;-93
2023/10/01 00:21:46;;;;;;;12.85;7.05;;;;;;;14.96;57.41;99570.50;6116339;23;20021;-92
2023/10/01 00:24:11;;;;;;;18.02;6.85;;;;;;;14.86;57.91;99562.53;6115753;23;20008;-92
2023/10/01 00:26:37;;;;;;;9.55;6.72;;;;;;;14.85;57.78;99560.91;6115971;23;20425;-93
2023/10/01 00:29:03;;;;;;;14.48;7.78;;;;;;;14.78;58.33;99568.59;6117295;23;20028;-92
2023/10/01 00:31:29;;;;;;;11.05;7.28;;;;;;;14.66;59.17;99571.72;6116515;23;20001;-92
2023/10/01 00:33:55;;;;;;;11.82;7.25;;;;;;;14.43;59.64;99559.78;6117320;23;19989;-92
2023/10/01 00:36:20;;;;;;;14.82;7.45;;;;;;;14.25;60.34;99558.63;6140557;23;20024;-94
2023/10/01 00:38:48;;;;;;;18.00;7.65;;;;;;;14.20;60.28;99545.94;6116793;23;20005;-93
2023/10/01 00:41:15;;;;;;;11.75;7.88;;;;;;;14.21;59.94;99539.44;6117287;23;20013;-93
2023/10/01 00:43:40;;;;;;;13.13;7.80;;;;;;;14.42;59.76;99563.56;6115614;23;20004;-93
2023/10/01 00:46:06;;;;;;;11.48;7.13;;;;;;;14.31;60.18;99558.28;6140636;23;19997;-93
2023/10/01 00:48:32;;;;;;;11.32;7.20;;;;;;;14.28;60.00;99550.75;6117055;23;20007;-93
2023/10/01 00:50:58;;;;;;;12.90;7.90;;;;;;;14.13;60.64;99559.84;6116109;23;20004;-93
2023/10/01 00:53:24;;;;;;;13.63;8.18;;;;;;;14.01;60.28;99554.00;6116633;23;20012;-93
2023/10/01 00:55:51;;;;;;;15.57;8.55;;;;;;;14.06;60.10;99550.44;6115094;23;20436;-93
2023/10/01 00:58:18;;;;;;;13.18;7.90;;;;;;;14.19;59.68;99557.88;6116377;23;20008;-93
2023/10/01 01:00:49;;;;;;;16.67;8.55;;;;;;;14.28;59.54;99553.44;6116330;23;20084;-93
2023/10/01 01:03:22;;;;;;;14.45;7.95;;;;;;;14.32;59.58;99551.78;6142589;23;20076;-92
2023/10/01 01:06:03;;;;;;;13.13;7.88;;;;;;;14.40;59.11;99550.34;6142267;23;20000;-92
2023/10/01 01:08:35;;;;;;;14.05;8.38;;;;;;;14.39;59.33;99551.41;6147192;23;20428;-93
2023/10/01 01:11:02;;;;;;;;;;;;;;;14.40;59.33;99563.88;6118601;23;19997;-92
2023/10/01 01:13:29;;;;;;;13.98;7.43;;;;;;;14.34;59.30;99548.78;6140585;23;19958;-93
2023/10/01 01:15:57;;;;;;;17.75;8.40;;;;;;;14.29;58.62;99529.88;6115890;23;20007;-93
2023/10/01 01:18:26;;;;;;;18.73;8.20;;;;;;;14.46;58.89;99556.47;6116519;23;20004;-93
2023/10/01 01:20:57;;;;;;;14.82;7.47;;;;;;;14.40;58.84;99535.97;6116583;23;20013;-94
2023/10/01 01:23:24;;;;;;;;;;;;;;;14.54;58.81;99553.94;6118899;23;20001;-93
2023/10/01 01:25:52;;;;;;;17.35;8.35;;;;;;;14.34;58.72;99524.41;6140488;23;19904;-93
2023/10/01 01:28:26;;;;;;;17.85;8.85;;;;;;;14.48;58.49;99532.63;6117470;23;20012;-94
2023/10/01 01:30:52;;;;;;;15.85;8.32;;;;;;;14.45;58.26;99534.00;6118781;23;20063;-94
2023/10/01 01:33:21;;;;;;;14.07;7.70;;;;;;;14.58;58.41;99548.78;6115747;23;20000;-93
2023/10/01 01:35:53;;;;;;;14.20;8.30;;;;;;;14.52;58.82;99550.69;6116340;23;19977;-93
2023/10/01 01:38:20;;;;;;;13.90;7.85;;;;;;;14.33;59.14;99533.63;6117071;23;20004;-93
2023/10/01 01:40:50;;;;;;;12.98;7.97;;;;;;;14.34;59.44;99549.59;6116525;23;20009;-93
2023/10/01 01:43:21;;;;;;;12.80;8.13;;;;;;;14.40;59.93;99561.16;6117496;23;19991;-92
2023/10/01 01:46:00;;;;;;;11.27;7.37;;;;;;;14.27;59.82;99540.97;6118547;23;20031;-92
2023/10/01 01:48:35;;;;;;;8.93;6.47;;;;;;;14.25;59.85;99540.47;6119922;23;20001;-92
2023/10/01 01:51:03;;;;;;;14.07;7.30;;;;;;;14.15;60.10;99541.41;6145915;23;20004;-93
2023/10/01 01:53:35;;;;;;;15.77;7.47;;;;;;;14.19;59.86;99547.03;6115457;23;19981;-93
2023/10/01 01:56:04;;;;;;;16.27;7.30;;;;;;;14.22;59.96;99556.50;6116610;23;19989;-93
2023/10/01 01:58:32;;;;;;;13.15;7.90;;;;;;;14.23;59.96;99564.31;6141170;23;20007;-91
2023/10/01 02:01:08;;;;;;;12.02;6.97;;;;;;;14.19;60.29;99562.47;6140619;23;20348;-93
2023/10/01 02:03:37;;;;;;;14.32;7.57;;;;;;;14.20;60.44;99570.31;6119611;23;20035;-93
2023/10/01 02:06:07;;;;;;;10.27;7.25;;;;;;;14.09;60.26;99550.69;6115894;23;20027;-94
2023/10/01 02:08:53;;;;;;;17.98;7.20;;;;;;;14.12;60.60;99546.59;6115707;23;20128;-93
2023/10/01 02:11:19;;;;;;;16.25;7.70;;;;;;;14.09;60.95;99558.81;6122626;23;20032;-93
2023/10/01 02:13:46;;;;;;;13.57;7.85;;;;;;;14.07;60.99;99558.28;6114937;23;20001;-92
2023/10/01 02:19:11;;;;;;;13.05;7.43;;;;;;;14.10;60.72;99546.06;6144832;23;20143;-93
2023/10/01 02:21:43;;;;;;;16.48;7.38;;;;;;;14.06;60.79;99553.16;6124025;23;20445;-93
2023/10/01 02:24:14;;;;;;;13.93;7.53;;;;;;;13.92;61.05;99542.19;6115905;23;20007;-93
2023/10/01 02:26:40;;;;;;;18.02;7.95;;;;;;;14.02;61.10;99558.31;6115963;23;20035;-93
2023/10/01 02:29:07;;;;;;;14.70;8.13;;;;;;;13.91;61.26;99546.78;6139424;23;19993;-92
2023/10/01 02:31:35;;;;;;;15.35;7.97;;;;;;;13.84;61.41;99540.91;6115310;23;19993;-92
2023/10/01 02:34:01;;;;;;;13.18;8.30;;;;;;;13.88;61.40;99547.38;6116339;23;20004;-93
2023/10/01 02:36:30;;;;;;;13.15;8.30;;;;;;;13.82;61.39;99542.28;6114866;23;20005;-93
2023/10/01 02:38:56;;;;;;;20.33;9.10;;;;;;;13.82;61.70;99553.09;6116119;23;20007;-93
2023/10/01 02:41:25;;;;;;;10.43;8.25;;;;;;;13.81;61.79;99559.63;6114375;23;20001;-93
2023/10/01 02:43:52;;;;;;;12.75;7.65;;;;;;;13.84;61.57;99565.28;6140648;23;20009;-93
2023/10/01 02:46:26;;;;;;;15.05;8.35;;;;;;;13.86;61.65;99563.09;6115342;23;20005;-92
2023/10/01 02:48:59;;;;;;;15.05;7.68;;;;;;;13.87;61.38;99556.56;6118202;23;20009;-93
2023/10/01 02:51:37;;;;;;;14.90;8.48;;;;;;;13.80;61.83;99556.13;6140806;23;20000;-91
2023/10/01 02:56:33;;;;;;;13.77;8.25;;;;;;;13.72;61.96;99557.53;6140275;23;20013;-93
2023/10/01 02:59:15;;;;;;;16.35;8.57;;;;;;;13.65;62.25;99557.03;6116725;23;20001;-93
2023/10/01 03:01:48;;;;;;;15.20;9.15;;;;;;;13.62;62.12;99554.13;6120588;23;20039;-93
2023/10/01 03:04:18;;;;;;;14.52;9.63;;;;;;;13.53;62.27;99549.31;6140494;23;20097;-94
2023/10/01 03:06:56;;;;;;;21.95;11.02;;;;;;;13.45;62.61;99541.81;6115933;23;20005;-92
2023/10/01 03:09:31;;;;;;;22.73;9.13;;;;;;;13.49;62.53;99552.88;6119624;23;19989;-93
2023/10/01 03:14:43;;;;;;;13.63;8.68;;;;;;;13.45;62.52;99549.91;6148043;23;20012;-93
2023/10/01 03:17:17;;;;;;;14.52;9.75;;;;;;;13.49;62.63;99558.28;6140359;23;20009;-93
2023/10/01 03:19:52;;;;;;;12.77;9.63;;;;;;;13.52;62.44;99561.22;6119391;23;20009;-93
2023/10/01 03:22:23;;;;;;;13.48;9.35;;;;;;;13.57;62.35;99563.06;6118129;23;20009;-92
2023/10/01 03:24:49;;;;;;;19.95;10.05;;;;;;;13.54;62.11;99556.31;6116774;23;20004;-92
2023/10/01 03:27:24;;;;;;;15.48;9.10;;;;;;;13.48;62.59;99548.53;6138769;23;20004;-92
2023/10/01 03:29:54;;;;;;;18.58;9.93;;;;;;;13.59;62.21;99562.78;6119476;23;19997;-93
2023/10/01 03:32:29;;;;;;;15.35;8.50;;;;;;;13.53;62.23;99556.63;6118187;23;19997;-93
2023/10/01 03:35:04;;;;;;;20.55;9.60;;;;;;;13.67;62.30;99568.38;6143293;23;20007;-92
2023/10/01 03:37:30;;;;;;;19.88;8.80;;;;;;;13.67;62.17;99557.56;6119109;23;20347;-93
2023/10/01 03:40:09;;;;;;;22.63;8.70;;;;;;;13.60;62.47;99559.00;6139282;23;19997;-93
2023/10/01 03:42:37;;;;;;;21.17;8.98;;;;;;;13.70;62.14;99564.31;6121354;23;20071;-94
2023/10/01 03:47:36;;;;;;;15.75;8.73;;;;;;;13.64;61.79;99550.03;6143211;23;20005;-94
2023/10/01 03:50:03;;;;;;;14.88;9.05;;;;;;;13.58;62.29;99547.66;6117409;23;20036;-92
2023/10/01 03:52:29;;;;;;;14.30;8.68;;;;;;;13.63;62.27;99569.25;6117525;23;20005;-93
2023/10/01 03:57:24;;;;;;;14.73;8.35;;;;;;;13.32;62.60;99542.44;6143115;23;20015;-93
2023/10/01 03:59:53;;;;;;;16.85;8.07;;;;;;;13.42;62.55;99544.25;6116026;23;20004;-93
2023/10/01 04:05:30;;;;;;;22.15;8.20;;;;;;;13.49;62.79;99572.63;6148883;23;20012;-93
2023/10/01 04:08:04;;;;;;;12.50;7.38;;;;;;;13.40;63.00;99562.66;6144076;23;20489;-93
2023/10/01 04:10:31;;;;;;;15.73;7.78;;;;;;;13.44;62.99;99574.53;6119542;23;20004;-93
2023/10/01 04:13:01;;;;;;;13.98;7.85;;;;;;;13.40;62.84;99579.69;6116046;23;20074;-92
2023/10/01 04:15:31;;;;;;;14.75;7.82;;;;;;;13.46;62.74;99580.47;6119117;23;20059;-93
2023/10/01 04:20:48;;;;;;;16.20;8.50;;;;;;;13.38;63.06;99584.59;6145017;23;20059;-93
2023/10/01 04:23:29;;;;;;;14.80;8.75;;;;;;;13.19;63.44;99580.91;6117435;23;20001;-91
2023/10/01 04:26:06;;;;;;;14.20;8.73;;;;;;;13.28;63.40;99595.44;6121107;23;20016;-92
2023/10/01 04:28:36;;;;;;;17.65;8.15;;;;;;;13.33;63.38;99600.84;6119382;23;20074;-93
2023/10/01 04:31:09;;;;;;;15.30;8.90;;;;;;;13.20;63.35;99586.03;6116282;23;19997;-92
2023/10/01 04:33:42;;;;;;;16.65;8.93;;;;;;;13.26;63.43;99586.78;6119108;23;20001;-93
2023/10/01 04:36:11;;;;;;;15.23;9.60;;;;;;;13.24;63.51;99595.22;6118157;23;20001;-93
2023/10/01 04:38:36;;;;;;;13.93;8.32;;;;;;;13.24;63.69;99592.50;6117047;23;20001;-92
2023/10/01 04:41:07;;;;;;;17.30;9.70;;;;;;;13.23;63.67;99606.31;6139873;23;20005;-92
2023/10/01 04:43:35;;;;;;;19.38;8.98;;;;;;;13.09;64.04;99590.72;6117963;23;20083;-92
2023/10/01 04:46:04;;;;;;;17.30;9.65;;;;;;;13.15;63.78;99599.59;6116292;23;20005;-93
2023/10/01 04:48:33;;;;;;;19.52;9.88;;;;;;;13.17;63.45;99594.69;6117387;23;20081;-93
2023/10/01 04:50:59;;;;;;;15.95;9.50;;;;;;;13.17;63.43;99596.59;6117498;23;20044;-95
2023/10/01 04:53:25;;;;;;;21.88;10.45;;;;;;;13.30;63.70;99629.28;6116702;23;20001;-94
2023/10/01 04:56:00;;;;;;;17.90;10.90;;;;;;;13.33;63.34;99623.28;6116300;23;20028;-92
2023/10/01 04:58:27;;;;;;;25.65;11.13;;;;;;;13.37;63.22;99630.88;6119351;23;20001;-94
2023/10/01 05:00:55;;;;;;;17.63;11.05;;;;;;;13.37;63.15;99623.56;6165098;23;20008;-93
2023/10/01 05:03:44;;;;;;;17.35;10.25;;;;;;;13.43;63.04;99633.25;6115268;23;19997;-93
2023/10/01 05:06:14;;;;;;;18.23;10.27;;;;;;;13.44;63.37;99640.25;6122965;23;20012;-93
2023/10/01 05:08:40;;;;;;;21.50;10.55;;;;;;;13.33;63.53;99620.59;6115637;23;19997;-94
2023/10/01 05:11:10;;;;;;;18.63;10.23;;;;;;;13.35;63.57;99623.03;6114630;23;20055;-94
2023/10/01 05:13:41;;;;;;;17.00;10.13;;;;;;;13.34;63.44;99614.09;6116816;23;20001;-94
2023/10/01 05:16:12;;;;;;;14.13;9.52;;;;;;;13.26;63.66;99616.53;6114818;23;20003;-94
2023/10/01 05:18:48;;;;;;;19.90;9.57;;;;;;;13.34;63.54;99624.09;6115535;23;20396;-92
2023/10/01 05:21:18;;;;;;;19.85;10.35;;;;;;;13.22;63.54;99619.03;6119110;23;20025;-93
2023/10/01 05:23:45;;;;;;;20.05;10.00;;;;;;;13.51;63.02;99642.69;6141072;23;20344;-92
2023/10/01 05:26:11;;;;;;;14.98;10.20;;;;;;;13.63;62.68;99639.59;6115680;23;20056;-93
2023/10/01 05:28:41;;;;;;;22.00;12.23;;;;;;;13.71;62.74;99637.09;6115587;23;20035;-93
2023/10/01 05:31:14;;;;;;;18.02;10.07;;;;;;;13.74;62.65;99627.63;6117040;23;20017;-92
2023/10/01 05:33:46;;;;;;;20.15;10.48;;;;;;;13.90;62.26;99644.53;6118127;23;20555;-92
2023/10/01 05:36:13;;;;;;;34.90;21.63;;;;;;;13.88;62.24;99639.41;6115851;23;20058;-90
2023/10/01 05:38:39;;;;;;;33.03;20.00;;;;;;;13.98;61.98;99633.06;6137955;23;20455;-92
2023/10/01 05:41:09;;;;;;;82.22;46.00;;;;;;;14.03;62.02;99634.94;6113383;23;20001;-93
2023/10/01 05:43:37;;;;;;;284.90;138.93;;;;;;;14.09;61.98;99639.19;6116057;23;20432;-91
2023/10/01 05:46:08;;;;;;;145.95;81.70;;;;;;;14.17;61.40;99645.91;6139795;23;20074;-91
2023/10/01 05:48:39;;;;;;;100.38;53.95;;;;;;;14.15;61.12;99635.34;6115761;23;19985;-91
2023/10/01 05:51:20;;;;;;;124.68;71.35;;;;;;;14.32;61.36;99652.00;6114134;23;19997;-94
2023/10/01 05:53:46;;;;;;;54.60;37.47;;;;;;;14.33;60.90;99647.38;6117707;23;20428;-92
2023/10/01 05:56:12;;;;;;;45.03;26.90;;;;;;;14.46;60.53;99637.75;6113749;23;20444;-92
2023/10/01 05:58:38;;;;;;;72.97;43.08;;;;;;;14.57;60.11;99633.88;6114268;23;20032;-90
2023/10/01 06:01:13;;;;;;;59.08;36.30;;;;;;;14.81;59.96;99650.13;6115587;23;20005;-93
2023/10/01 06:03:46;;;;;;;36.28;22.63;;;;;;;14.91;59.62;99652.72;6117415;23;20004;-93
2023/10/01 06:06:25;;;;;;;37.28;23.80;;;;;;;14.92;59.34;99648.09;6140065;23;20000;-92
2023/10/01 06:08:58;;;;;;;52.35;27.40;;;;;;;15.12;59.12;99657.88;6119328;23;20122;-96
2023/10/01 06:14:43;;;;;;;;;;;;;;;15.43;58.55;99671.81;6121027;23;20012;-93
2023/10/01 06:17:10;;;;;;;34.00;16.85;;;;;;;15.34;58.54;99654.59;6141758;23;19888;-93
2023/10/01 06:19:38;;;;;;;24.10;11.40;;;;;;;15.40;57.87;99639.03;6139749;23;20009;-94
2023/10/01 06:22:13;;;;;;;28.70;14.90;;;;;;;15.56;57.00;99643.13;6114748;23;20025;-93
2023/10/01 06:24:42;;;;;;;25.98;14.68;;;;;;;15.70;56.72;99646.72;6119131;23;20002;-92
2023/10/01 06:27:09;;;;;;;21.17;12.73;;;;;;;15.90;56.49;99656.50;6114008;23;20005;-92
2023/10/01 06:29:49;;;;;;;22.35;12.85;;;;;;;16.04;56.14;99664.69;6114004;23;19994;-93
2023/10/01 06:32:22;;;;;;;32.47;17.25;;;;;;;16.05;56.48;99650.00;6120774;23;20005;-93
2023/10/01 06:34:49;;;;;;;28.33;19.42;;;;;;;16.22;55.84;99648.63;6117218;23;20375;-92
2023/10/01 06:37:15;;;;;;;14.02;9.65;;;;;;;16.42;55.81;99667.28;6114631;23;20163;-92
2023/10/01 06:39:41;;;;;;;21.35;11.63;;;;;;;16.49;54.49;99658.72;6114981;23;20032;-92
2023/10/01 06:42:19;;;;;;;19.75;9.20;;;;;;;16.56;54.91;99667.31;6115100;23;20511;-92
2023/10/01 06:44:50;;;;;;;14.98;8.35;;;;;;;16.53;55.36;99667.88;6119141;23;20020;-92
2023/10/01 06:47:28;;;;;;;25.52;16.80;;;;;;;16.61;55.29;99652.78;6139524;23;20001;-93
2023/10/01 06:52:35;;;;;;;17.50;9.05;;;;;;;16.76;54.04;99656.00;6144542;23;20005;-93
2023/10/01 06:55:25;;;;;;;14.52;7.65;;;;;;;16.98;53.90;99665.41;6144655;23;20024;-92
2023/10/01 06:57:51;;;;;;;10.07;7.25;;;;;;;17.02;53.17;99658.25;6144087;23;20071;-93
2023/10/01 07:00:21;;;;;;;14.93;9.25;;;;;;;17.20;52.77;99653.75;6115057;23;20009;-93
2023/10/01 07:02:49;;;;;;;15.82;8.95;;;;;;;17.31;52.50;99659.81;6141590;23;20420;-94
2023/10/01 07:05:20;;;;;;;15.65;8.70;;;;;;;17.56;52.21;99677.50;6117955;23;20028;-94
2023/10/01 07:07:45;;;;;;;12.03;6.63;;;;;;;17.56;52.12;99650.25;6119316;23;20029;-93
2023/10/01 07:10:11;;;;;;;17.77;6.68;;;;;;;17.68;51.75;99649.69;6116649;23;20267;-93
2023/10/01 07:12:38;;;;;;;10.63;6.47;;;;;;;17.91;51.22;99661.44;6142953;23;20055;-93
2023/10/01 07:15:04;;;;;;;14.98;6.93;;;;;;;18.15;51.54;99674.72;6118452;23;20079;-93
2023/10/01 07:17:31;;;;;;;22.70;7.43;;;;;;;18.21;51.20;99659.06;6118866;23;20451;-93
2023/10/01 07:19:59;;;;;;;13.13;7.85;;;;;;;18.33;51.01;99651.09;6117700;23;20008;-93
2023/10/01 07:22:31;;;;;;;13.43;6.90;;;;;;;18.57;50.70;99678.81;6117543;23;20511;-93
2023/10/01 07:24:59;;;;;;;;;;;;;;;18.76;49.99;99680.50;6118857;23;20035;-93
2023/10/01 07:27:26;;;;;;;13.93;6.35;;;;;;;18.83;50.60;99675.41;6167152;23;19911;-93
2023/10/01 07:29:54;;;;;;;13.05;6.93;;;;;;;19.02;50.17;99683.31;6117731;23;20005;-94
2023/10/01 07:32:22;;;;;;;13.02;5.80;;;;;;;19.00;49.57;99652.81;6115772;23;20001;-92
2023/10/01 07:34:53;;;;;;;9.95;4.13;;;;;;;19.31;46.87;99674.53;6117218;23;20082;-93
2023/10/01 07:37:25;;;;;;;9.68;4.32;;;;;;;19.39;46.25;99657.38;6142567;23;20135;-94
2023/10/01 07:39:55;;;;;;;11.88;4.53;;;;;;;19.66;47.13;99669.09;6121305;23;20005;-93
2023/10/01 07:42:25;;;;;;;12.23;5.20;;;;;;;19.83;47.04;99676.50;6117902;23;20024;-93
2023/10/01 07:44:52;;;;;;;9.90;4.78;;;;;;;20.11;45.01;99676.97;6117552;23;20059;-94
2023/10/01 07:47:32;;;;;;;8.77;3.97;;;;;;;20.30;44.89;99682.06;6118469;23;20040;-93
2023/10/01 07:49:58;;;;;;;8.45;3.70;;;;;;;20.44;43.57;99676.41;6123053;23;20001;-94
2023/10/01 07:52:23;;;;;;;5.22;3.72;;;;;;;20.58;43.28;99665.25;6142242;23;20009;-93
2023/10/01 07:54:49;;;;;;;9.13;4.18;;;;;;;20.70;42.93;99662.63;6116886;23;20344;-94
2023/10/01 07:57:26;;;;;;;6.90;4.18;;;;;;;20.93;42.59;99674.09;6115668;23;20418;-92
2023/10/01 07:59:53;;;;;;;9.23;4.00;;;;;;;21.03;41.99;99678.41;6119065;23;20000;-93
2023/10/01 08:04:59;;;;;;;7.85;4.00;;;;;;;21.23;41.21;99676.03;6143804;23;20001;-94
2023/10/01 08:07:31;;;;;;;5.80;4.05;;;;;;;21.39;41.21;99691.56;6118718;23;20000;-93
2023/10/01 08:09:59;;;;;;;9.27;3.78;;;;;;;21.30;40.70;99671.63;6119249;23;20055;-93
2023/10/01 08:17:54;;;;;;;8.05;4.00;;;;;;;21.49;41.08;99671.19;6147955;23;20453;-92
2023/10/01 08:20:30;;;;;;;8.88;4.20;;;;;;;21.68;41.08;99695.38;6142166;23;20013;-93
2023/10/01 08:23:22;;;;;;;7.65;5.28;;;;;;;21.73;41.69;99695.19;6120420;23;19997;-94
2023/10/01 08:25:51;;;;;;;11.38;4.70;;;;;;;21.80;41.13;99683.69;6126713;23;20007;-93
2023/10/01 08:30:49;;;;;;;9.90;4.57;;;;;;;21.98;40.33;99682.38;6141123;23;20001;-93
2023/10/01 08:35:56;;;;;;;6.90;4.13;;;;;;;22.23;38.87;99707.19;6143205;23;20012;-92
2023/10/01 08:38:23;;;;;;;12.98;4.45;;;;;;;22.12;37.90;99695.81;6142284;23;20420;-93
2023/10/01 08:40:49;;;;;;;6.00;3.88;;;;;;;22.16;38.45;99695.91;6115422;23;20005;-93
2023/10/01 08:43:16;;;;;;;7.82;3.60;;;;;;;22.25;38.44;99704.13;6115626;23;20033;-92
2023/10/01 08:45:43;;;;;;;7.93;4.32;;;;;;;22.15;38.44;99683.34;6140915;23;20005;-93
2023/10/01 08:48:09;;;;;;;9.77;4.00;;;;;;;22.33;38.45;99695.78;6117056;23;20001;-94
2023/10/01 08:50:41;;;;;;;13.30;4.38;;;;;;;22.27;38.40;99672.44;6140177;23;20060;-94
2023/10/01 08:53:12;;;;;;;7.72;4.18;;;;;;;22.39;38.28;99705.41;6116094;23;20082;-93
2023/10/01 09:00:48;;;;;;;7.22;4.00;;;;;;;22.60;36.92;99699.03;6142997;23;20015;-91
2023/10/01 09:03:34;;;;;;;7.07;4.15;;;;;;;22.59;36.90;99691.94;6116610;23;20005;-93
2023/10/01 09:06:03;;;;;;;7.45;4.18;;;;;;;22.63;36.66;99692.84;6146141;23;19997;-93
2023/10/01 09:08:42;;;;;;;8.32;4.47;;;;;;;22.70;36.63;99708.75;6140962;23;20001;-91
2023/10/01 09:11:12;;;;;;;14.35;4.70;;;;;;;22.60;36.92;99686.09;6118345;23;20007;-93
2023/10/01 09:16:42;;;;;;;9.57;4.10;;;;;;;22.87;36.94;99696.75;6135531;23;19997;-95
2023/10/01 09:19:31;;;;;;;9.98;4.20;;;;;;;22.85;36.57;99699.03;6118018;23;20001;-92
2023/10/01 09:25:30;;;;;;;6.63;4.50;;;;;;;23.03;35.57;99686.72;6161733;23;20326;-92
2023/10/01 09:31:26;;;;;;;5.97;3.90;;;;;;;23.09;35.81;99681.78;6100504;23;19998;-93
2023/10/01 09:33:49;;;;;;;7.28;3.83;;;;;;;23.20;35.19;99693.91;6061476;23;19990;-93
2023/10/01 09:36:33;;;;;;;6.07;3.80;;;;;;;23.22;35.09;99707.28;6028235;23;20009;-92
2023/10/01 09:39:03;;;;;;;9.30;4.30;;;;;;;23.15;34.58;99683.94;6075503;23;20006;-93
2023/10/01 09:41:31;;;;;;;6.10;4.07;;;;;;;23.33;34.55;99690.00;6052018;23;20013;-93
2023/10/01 09:43:58;;;;;;;7.18;4.10;;;;;;;23.22;35.03;99688.84;6027683;23;20010;-91
2023/10/01 09:46:25;;;;;;;9.30;4.13;;;;;;;23.23;35.12;99689.69;6028336;23;20010;-92
2023/10/01 09:49:00;;;;;;;9.55;4.40;;;;;;;23.35;35.01;99695.16;6028221;23;20006;-92
2023/10/01 09:51:31;;;;;;;9.02;4.43;;;;;;;23.37;34.59;99696.41;6030434;23;20006;-93
2023/10/01 09:54:01;;;;;;;6.97;3.50;;;;;;;23.24;34.01;99694.00;6030997;23;20070;-92
2023/10/01 09:56:26;;;;;;;12.40;4.00;;;;;;;23.41;34.38;99699.28;6029747;23;20158;-93
2023/10/01 09:59:03;;;;;;;8.65;3.95;;;;;;;23.50;34.57;99705.41;6053408;23;20007;-91
2023/10/01 10:01:35;;;;;;;9.73;4.53;;;;;;;23.43;34.59;99696.97;6059316;23;20017;-94
2023/10/01 10:04:04;;;;;;;7.88;4.15;;;;;;;23.30;33.27;99687.13;6111349;23;20010;-93
2023/10/01 10:06:31;;;;;;;6.75;4.15;;;;;;;23.48;33.92;99698.69;6134082;23;20038;-92
2023/10/01 10:09:03;;;;;;;9.15;4.43;;;;;;;23.58;33.88;99693.50;6110798;23;20414;-91
2023/10/01 10:11:45;;;;;;;9.73;3.83;;;;;;;23.47;34.13;99681.41;6136125;23;20408;-92
2023/10/01 10:14:28;;;;;;;12.75;4.10;;;;;;;23.67;33.69;99700.78;6111475;23;20005;-92
2023/10/01 10:17:07;;;;;;;6.18;3.83;;;;;;;23.62;33.54;99682.59;6162025;23;20001;-92
2023/10/01 10:19:47;;;;;;;8.50;4.20;;;;;;;23.73;33.98;99693.91;6113528;23;20002;-92
2023/10/01 10:22:16;;;;;;;12.63;4.40;;;;;;;23.79;33.70;99678.78;6116844;23;20017;-92
2023/10/01 10:24:46;;;;;;;5.70;4.00;;;;;;;23.85;33.18;99669.13;6108930;23;20413;-93
2023/10/01 10:27:34;;;;;;;6.95;4.20;;;;;;;23.87;33.56;99671.53;6086509;23;20037;-93
2023/10/01 10:30:05;;;;;;;6.53;4.68;;;;;;;23.95;32.36;99685.16;6116238;23;20021;-93
2023/10/01 10:32:44;;;;;;;9.43;4.20;;;;;;;23.90;32.51;99666.13;6137212;23;20005;-93
2023/10/01 10:35:14;;;;;;;7.93;4.05;;;;;;;24.05;32.84;99672.03;6088615;23;20009;-93
2023/10/01 10:37:48;;;;;;;9.75;4.28;;;;;;;24.03;32.83;99663.31;6135482;23;20005;-94
2023/10/01 10:42:57;;;;;;;6.43;4.10;;;;;;;24.02;32.54;99658.97;6135760;23;20060;-93
2023/10/01 10:45:57;;;;;;;7.43;4.03;;;;;;;24.15;31.50;99666.78;6112180;23;20005;-93
2023/10/01 10:48:21;;;;;;;9.02;3.83;;;;;;;24.21;31.36;99664.59;6120966;23;20025;-94
2023/10/01 10:50:52;;;;;;;14.07;5.10;;;;;;;24.28;32.01;99673.06;6087516;23;19997;-94
2023/10/01 10:53:22;;;;;;;9.10;4.10;;;;;;;24.01;31.47;99630.69;6111635;23;20001;-94
2023/10/01 10:55:54;;;;;;;13.38;4.18;;;;;;;24.23;31.58;99669.75;6086922;23;20008;-94
2023/10/01 10:58:20;;;;;;;;;;;;;;;24.25;31.38;99653.69;6135153;23;20008;-94
2023/10/01 11:00:48;;;;;;;10.20;4.18;;;;;;;24.17;31.36;99630.69;6109913;23;19908;-93
2023/10/01 11:03:16;;;;;;;10.40;3.95;;;;;;;24.24;31.67;99635.56;6086197;23;20459;-94
2023/10/01 11:05:51;;;;;;;9.35;4.50;;;;;;;24.27;31.32;99643.91;6111783;23;20005;-93
2023/10/01 11:08:27;;;;;;;6.28;4.50;;;;;;;24.29;30.78;99619.59;6090077;23;20437;-93
2023/10/01 11:10:57;;;;;;;7.60;4.03;;;;;;;24.40;31.18;99636.38;6090005;23;19994;-94
2023/10/01 11:13:42;;;;;;;6.38;3.72;;;;;;;24.49;30.46;99639.78;6089296;23;20010;-93
2023/10/01 11:16:18;;;;;;;6.82;3.97;;;;;;;24.49;29.55;99628.78;6112912;23;20020;-94
2023/10/01 11:18:50;;;;;;;7.75;4.00;;;;;;;24.44;30.22;99606.97;6089841;23;20096;-94
2023/10/01 11:21:24;;;;;;;12.75;4.63;;;;;;;24.56;30.71;99617.94;6103522;23;20089;-94
2023/10/01 11:23:53;;;;;;;11.05;4.32;;;;;;;24.53;30.27;99610.41;6115954;23;20100;-94
2023/10/01 11:26:29;;;;;;;13.65;4.07;;;;;;;24.65;30.34;99614.19;6112242;23;20453;-92
2023/10/01 11:29:01;;;;;;;8.38;4.05;;;;;;;24.65;30.50;99622.44;6136245;23;19997;-94
2023/10/01 11:31:31;;;;;;;8.18;3.88;;;;;;;24.65;30.63;99616.94;6110999;23;20463;-93
2023/10/01 11:34:21;;;;;;;7.83;4.00;;;;;;;24.62;30.41;99612.97;6110811;23;20092;-93
2023/10/01 11:36:56;;;;;;;9.25;4.50;;;;;;;24.62;29.76;99601.94;6116411;23;20010;-94
2023/10/01 11:39:38;;;;;;;7.10;4.25;;;;;;;24.73;29.49;99602.19;6113175;23;20002;-94
2023/10/01 11:42:19;;;;;;;6.65;3.75;;;;;;;24.67;29.95;99582.38;6115079;23;20413;-93
2023/10/01 11:44:52;;;;;;;7.20;4.15;;;;;;;24.73;30.47;99599.44;6116592;23;20006;-94
2023/10/01 11:47:31;;;;;;;8.55;4.18;;;;;;;24.91;29.35;99595.13;6112980;23;20085;-93
2023/10/01 11:50:09;;;;;;;6.70;4.13;;;;;;;24.91;29.83;99594.34;6115055;23;20001;-91
2023/10/01 11:52:36;;;;;;;8.02;4.65;;;;;;;24.95;29.26;99576.72;6118367;23;20025;-93
2023/10/01 11:55:19;;;;;;;9.32;4.47;;;;;;;25.15;29.72;99599.59;6114227;23;20011;-93
2023/10/01 11:57:53;;;;;;;9.80;4.03;;;;;;;25.20;29.13;99604.03;6114088;23;20001;-94
2023/10/01 12:00:52;;;;;;;5.63;3.90;;;;;;;24.96;29.24;99603.09;6113685;23;20053;-91
2023/10/01 12:03:10;;;;;;;6.05;3.92;;;;;;;24.89;28.89;99582.88;6139733;23;20072;-92
2023/10/01 12:05:43;;;;;;;9.27;3.88;;;;;;;24.96;28.77;99597.59;6136959;23;20009;-93
2023/10/01 12:08:17;;;;;;;8.07;4.22;;;;;;;24.96;28.91;99572.81;6113019;23;20001;-91
2023/10/01 12:10:43;;;;;;;9.48;4.13;;;;;;;25.28;28.61;99611.31;6113477;23;19997;-93
2023/10/01 12:13:11;;;;;;;10.73;4.22;;;;;;;25.17;28.95;99588.19;6109704;23;19997;-92
2023/10/01 12:15:40;;;;;;;13.10;4.80;;;;;;;25.30;28.52;99584.19;6112559;23;20055;-92
2023/10/01 12:18:11;;;;;;;7.25;3.90;;;;;;;25.28;28.13;99585.72;6113643;23;20006;-92
2023/10/01 12:20:39;;;;;;;7.00;4.30;;;;;;;25.16;27.29;99586.63;6112874;23;20423;-92
2023/10/01 12:23:11;;;;;;;7.22;3.83;;;;;;;25.16;26.91;99570.09;6110732;23;20036;-93
2023/10/01 12:28:29;;;;;;;6.35;3.92;;;;;;;25.17;26.69;99582.69;6140597;23;20036;-94
2023/10/01 12:31:01;;;;;;;6.55;4.10;;;;;;;25.28;26.40;99585.72;6115689;23;20001;-93
2023/10/01 12:33:43;;;;;;;7.53;5.40;;;;;;;24.98;26.34;99564.97;6112892;23;20006;-94
2023/10/01 12:39:16;;;;;;;7.95;4.03;;;;;;;25.09;26.60;99562.47;6139853;23;20016;-93
2023/10/01 12:44:34;;;;;;;11.32;4.00;;;;;;;25.16;27.04;99570.09;6160220;23;20006;-93
2023/10/01 12:47:15;;;;;;;8.23;4.05;;;;;;;25.20;26.73;99574.53;6117957;23;19993;-94
2023/10/01 12:49:42;;;;;;;8.18;4.40;;;;;;;25.20;26.56;99543.41;6113734;23;20060;-94